sensor_id;sensor_type;location;lat;lon;timestamp;pressure;altitude;pressure_sealevel;temperature;humidity
31761;BME280;18335;51.486;7.562;2023-08-20T00:00:54;100735.19;;;20.64;100.00
31761;BME280;18335;51.486;7.562;2023-08-20T00:03:22;100734.50;;;20.75;100.00
31761;BME280;18335;51.486;7.562;2023-08-20T00:05:49;100725.31;;;20.81;100.00
31761;BME280;18335;51.486;7.562;2023-08-20T00:08:16;100736.63;;;20.73;100.00
31761;BME280;18335;51.486;7.562;2023-08-20T00:10:43;100734.03;;;20.84;100.00
31761;BME280;18335;51.486;7.562;2023-08-20T00:13:11;100733.66;;;20.74;100.00
31761;BME280;18335;51.486;7.562;2023-08-20T00:15:38;100743.88;;;20.80;100.00
31761;BME280;18335;51.486;7.562;2023-08-20T00:18:06;100745.19;;;20.71;100.00
31761;BME280;18335;51.486;7.562;2023-08-20T00:20:33;100739.44;;;20.66;100.00
31761;BME280;18335;51.486;7.562;2023-08-20T00:23:01;100736.50;;;20.55;100.00
31761;BME280;18335;51.486;7.562;2023-08-20T00:25:28;100744.19;;;20.46;100.00
31761;BME280;18335;51.486;7.562;2023-08-20T00:27:55;100753.59;;;20.38;100.00
31761;BME280;18335;51.486;7.562;2023-08-20T00:30:23;100760.75;;;20.72;100.00
31761;BME280;18335;51.486;7.562;2023-08-20T00:32:51;100752.59;;;20.90;100.00
31761;BME280;18335;51.486;7.562;2023-08-20T00:35:18;100753.97;;;20.55;100.00
31761;BME280;18335;51.486;7.562;2023-08-20T00:37:45;100749.66;;;20.72;100.00
31761;BME280;18335;51.486;7.562;2023-08-20T00:40:12;100756.97;;;20.60;100.00
31761;BME280;18335;51.486;7.562;2023-08-20T00:42:39;100757.78;;;20.67;100.00
31761;BME280;18335;51.486;7.562;2023-08-20T00:45:08;100763.72;;;20.77;100.00
31761;BME280;18335;51.486;7.562;2023-08-20T00:47:37;100763.25;;;20.93;100.00
31761;BME280;18335;51.486;7.562;2023-08-20T00:50:06;100758.00;;;20.72;100.00
31761;BME280;18335;51.486;7.562;2023-08-20T00:52:34;100758.88;;;20.66;100.00
31761;BME280;18335;51.486;7.562;2023-08-20T00:55:07;100754.53;;;20.77;100.00
31761;BME280;18335;51.486;7.562;2023-08-20T00:57:35;100755.47;;;20.58;100.00
31761;BME280;18335;51.486;7.562;2023-08-20T01:00:04;100747.22;;;20.38;100.00
31761;BME280;18335;51.486;7.562;2023-08-20T01:02:33;100740.19;;;20.35;100.00
31761;BME280;18335;51.486;7.562;2023-08-20T01:05:03;100749.13;;;20.37;100.00
31761;BME280;18335;51.486;7.562;2023-08-20T01:07:39;100739.06;;;20.43;100.00
31761;BME280;18335;51.486;7.562;2023-08-20T01:10:14;100738.03;;;20.31;100.00
31761;BME280;18335;51.486;7.562;2023-08-20T01:12:46;100736.75;;;20.40;100.00
31761;BME280;18335;51.486;7.562;2023-08-20T01:15:12;100726.50;;;20.47;100.00
31761;BME280;18335;51.486;7.562;2023-08-20T01:17:41;100723.16;;;20.19;100.00
31761;BME280;18335;51.486;7.562;2023-08-20T01:20:10;100724.66;;;20.28;100.00
31761;BME280;18335;51.486;7.562;2023-08-20T01:22:58;100719.94;;;20.28;100.00
31761;BME280;18335;51.486;7.562;2023-08-20T01:25:44;100725.47;;;20.22;100.00
31761;BME280;18335;51.486;7.562;2023-08-20T01:28:23;100724.19;;;20.18;100.00
31761;BME280;18335;51.486;7.562;2023-08-20T01:30:51;100725.06;;;20.25;100.00
31761;BME280;18335;51.486;7.562;2023-08-20T01:33:18;100723.34;;;20.11;100.00
31761;BME280;18335;51.486;7.562;2023-08-20T01:35:46;100720.38;;;20.06;100.00
31761;BME280;18335;51.486;7.562;2023-08-20T01:38:15;100719.31;;;20.33;100.00
31761;BME280;18335;51.486;7.562;2023-08-20T01:40:42;100721.88;;;20.08;100.00
31761;BME280;18335;51.486;7.562;2023-08-20T01:43:09;100723.16;;;20.19;100.00
31761;BME280;18335;51.486;7.562;2023-08-20T01:45:38;100725.47;;;20.22;100.00
31761;BME280;18335;51.486;7.562;2023-08-20T01:48:06;100723.78;;;20.08;100.00
31761;BME280;18335;51.486;7.562;2023-08-20T01:50:34;100727.59;;;20.13;100.00
31761;BME280;18335;51.486;7.562;2023-08-20T01:53:01;100733.56;;;20.10;100.00
31761;BME280;18335;51.486;7.562;2023-08-20T01:55:29;100739.78;;;20.06;100.00
31761;BME280;18335;51.486;7.562;2023-08-20T01:57:56;100739.34;;;20.09;100.00
31761;BME280;18335;51.486;7.562;2023-08-20T02:00:23;100741.69;;;20.12;100.00
31761;BME280;18335;51.486;7.562;2023-08-20T02:02:51;100742.13;;;19.96;100.00
31761;BME280;18335;51.486;7.562;2023-08-20T02:05:18;100747.25;;;19.92;100.00
31761;BME280;18335;51.486;7.562;2023-08-20T02:07:45;100751.06;;;19.78;100.00
31761;BME280;18335;51.486;7.562;2023-08-20T02:10:11;100750.03;;;19.79;100.00
31761;BME280;18335;51.486;7.562;2023-08-20T02:12:38;100752.34;;;20.08;100.00
31761;BME280;18335;51.486;7.562;2023-08-20T02:15:06;100747.47;;;19.84;100.00
31761;BME280;18335;51.486;7.562;2023-08-20T02:17:34;100750.66;;;19.87;100.00
31761;BME280;18335;51.486;7.562;2023-08-20T02:20:03;100740.88;;;19.85;100.00
31761;BME280;18335;51.486;7.562;2023-08-20T02:22:31;100740.44;;;19.95;100.00
31761;BME280;18335;51.486;7.562;2023-08-20T02:24:59;100740.00;;;19.84;100.00
31761;BME280;18335;51.486;7.562;2023-08-20T02:27:26;100740.84;;;19.72;100.00
31761;BME280;18335;51.486;7.562;2023-08-20T02:29:53;100735.31;;;19.72;100.00
31761;BME280;18335;51.486;7.562;2023-08-20T02:32:20;100738.31;;;19.64;100.00
31761;BME280;18335;51.486;7.562;2023-08-20T02:34:49;100740.00;;;19.58;100.00
31761;BME280;18335;51.486;7.562;2023-08-20T02:37:17;100742.78;;;19.65;100.00
31761;BME280;18335;51.486;7.562;2023-08-20T02:39:44;100737.44;;;19.63;100.00
31761;BME280;18335;51.486;7.562;2023-08-20T02:42:11;100750.66;;;19.61;100.00
31761;BME280;18335;51.486;7.562;2023-08-20T02:44:38;100743.84;;;19.44;100.00
31761;BME280;18335;51.486;7.562;2023-08-20T02:47:05;100755.31;;;19.54;100.00
31761;BME280;18335;51.486;7.562;2023-08-20T02:49:32;100757.03;;;19.55;100.00
31761;BME280;18335;51.486;7.562;2023-08-20T02:51:58;100766.19;;;19.49;100.00
31761;BME280;18335;51.486;7.562;2023-08-20T02:54:27;100769.38;;;19.46;100.00
31761;BME280;18335;51.486;7.562;2023-08-20T02:56:54;100769.41;;;19.72;100.00
31761;BME280;18335;51.486;7.562;2023-08-20T02:59:21;100765.34;;;19.68;100.00
31761;BME280;18335;51.486;7.562;2023-08-20T03:01:48;100768.13;;;19.55;100.00
31761;BME280;18335;51.486;7.562;2023-08-20T03:04:14;100768.75;;;19.44;100.00
31761;BME280;18335;51.486;7.562;2023-08-20T03:06:42;100781.75;;;19.50;100.00
31761;BME280;18335;51.486;7.562;2023-08-20T03:09:09;100787.06;;;19.58;100.00
31761;BME280;18335;51.486;7.562;2023-08-20T03:11:37;100803.47;;;19.66;100.00
31761;BME280;18335;51.486;7.562;2023-08-20T03:14:04;100791.53;;;19.66;100.00
31761;BME280;18335;51.486;7.562;2023-08-20T03:16:31;100799.22;;;19.97;100.00
31761;BME280;18335;51.486;7.562;2023-08-20T03:18:58;100783.47;;;20.04;100.00
31761;BME280;18335;51.486;7.562;2023-08-20T03:21:24;100789.44;;;20.01;100.00
31761;BME280;18335;51.486;7.562;2023-08-20T03:23:51;100785.59;;;20.02;100.00
31761;BME280;18335;51.486;7.562;2023-08-20T03:26:18;100782.59;;;19.90;100.00
31761;BME280;18335;51.486;7.562;2023-08-20T03:28:46;100781.13;;;19.94;100.00
31761;BME280;18335;51.486;7.562;2023-08-20T03:31:14;100783.44;;;19.77;100.00
31761;BME280;18335;51.486;7.562;2023-08-20T03:33:42;100787.06;;;19.71;100.00
31761;BME280;18335;51.486;7.562;2023-08-20T03:36:09;100788.97;;;19.51;100.00
31761;BME280;18335;51.486;7.562;2023-08-20T03:38:36;100791.34;;;19.67;100.00
31761;BME280;18335;51.486;7.562;2023-08-20T03:41:04;100784.53;;;19.76;100.00
31761;BME280;18335;51.486;7.562;2023-08-20T03:43:30;100773.22;;;19.78;100.00
31761;BME280;18335;51.486;7.562;2023-08-20T03:45:58;100780.25;;;19.87;100.00
31761;BME280;18335;51.486;7.562;2023-08-20T03:48:25;100776.63;;;19.86;100.00
31761;BME280;18335;51.486;7.562;2023-08-20T03:50:52;100773.44;;;19.89;100.00
31761;BME280;18335;51.486;7.562;2023-08-20T03:53:19;100781.34;;;19.79;100.00
31761;BME280;18335;51.486;7.562;2023-08-20T03:55:47;100781.94;;;19.68;100.00
31761;BME280;18335;51.486;7.562;2023-08-20T03:58:15;100780.91;;;19.69;100.00
31761;BME280;18335;51.486;7.562;2023-08-20T04:00:42;100789.00;;;19.77;100.00
31761;BME280;18335;51.486;7.562;2023-08-20T04:03:11;100784.72;;;19.68;100.00
31761;BME280;18335;51.486;7.562;2023-08-20T04:05:38;100795.81;;;19.62;100.00
31761;BME280;18335;51.486;7.562;2023-08-20T04:08:05;100793.03;;;19.55;100.00
31761;BME280;18335;51.486;7.562;2023-08-20T04:10:32;100804.72;;;19.51;100.00
31761;BME280;18335;51.486;7.562;2023-08-20T04:12:59;100796.44;;;19.57;100.00
31761;BME280;18335;51.486;7.562;2023-08-20T04:15:26;100800.91;;;19.58;100.00
31761;BME280;18335;51.486;7.562;2023-08-20T04:17:52;100808.56;;;19.63;100.00
31761;BME280;18335;51.486;7.562;2023-08-20T04:20:21;100805.78;;;19.43;100.00
31761;BME280;18335;51.486;7.562;2023-08-20T04:22:48;100798.97;;;19.52;100.00
31761;BME280;18335;51.486;7.562;2023-08-20T04:25:15;100806.88;;;19.68;100.00
31761;BME280;18335;51.486;7.562;2023-08-20T04:27:42;100813.72;;;19.72;100.00
31761;BME280;18335;51.486;7.562;2023-08-20T04:30:10;100816.91;;;19.76;100.00
31761;BME280;18335;51.486;7.562;2023-08-20T04:32:37;100803.91;;;19.96;100.00
31761;BME280;18335;51.486;7.562;2023-08-20T04:35:04;100806.06;;;20.01;100.00
31761;BME280;18335;51.486;7.562;2023-08-20T04:37:34;100808.63;;;20.22;100.00
31761;BME280;18335;51.486;7.562;2023-08-20T04:40:00;100818.00;;;20.21;100.00
31761;BME280;18335;51.486;7.562;2023-08-20T04:42:29;100813.31;;;20.34;100.00
31761;BME280;18335;51.486;7.562;2023-08-20T04:44:57;100809.28;;;20.30;100.00
31761;BME280;18335;51.486;7.562;2023-08-20T04:47:25;100815.44;;;20.26;100.00
31761;BME280;18335;51.486;7.562;2023-08-20T04:49:51;100824.16;;;20.23;100.00
31761;BME280;18335;51.486;7.562;2023-08-20T04:52:19;100820.31;;;20.37;100.00
31761;BME280;18335;51.486;7.562;2023-08-20T04:54:48;100811.63;;;20.33;100.00
31761;BME280;18335;51.486;7.562;2023-08-20T04:57:15;100814.59;;;20.45;100.00
31761;BME280;18335;51.486;7.562;2023-08-20T04:59:42;100826.50;;;20.52;100.00
31761;BME280;18335;51.486;7.562;2023-08-20T05:02:16;100814.53;;;20.58;100.00
31761;BME280;18335;51.486;7.562;2023-08-20T05:04:49;100818.81;;;20.61;100.00
31761;BME280;18335;51.486;7.562;2023-08-20T05:07:17;100838.44;;;20.59;100.00
31761;BME280;18335;51.486;7.562;2023-08-20T05:09:44;100829.41;;;20.83;100.00
31761;BME280;18335;51.486;7.562;2023-08-20T05:12:12;100828.03;;;21.06;100.00
31761;BME280;18335;51.486;7.562;2023-08-20T05:14:38;100826.97;;;21.20;100.00
31761;BME280;18335;51.486;7.562;2023-08-20T05:17:06;100824.56;;;21.30;100.00
31761;BME280;18335;51.486;7.562;2023-08-20T05:19:33;100820.00;;;21.42;100.00
31761;BME280;18335;51.486;7.562;2023-08-20T05:22:00;100818.00;;;21.56;100.00
31761;BME280;18335;51.486;7.562;2023-08-20T05:24:30;100822.09;;;21.53;100.00
31761;BME280;18335;51.486;7.562;2023-08-20T05:27:05;100824.22;;;21.51;100.00
31761;BME280;18335;51.486;7.562;2023-08-20T05:29:34;100818.19;;;21.61;100.00
31761;BME280;18335;51.486;7.562;2023-08-20T05:32:01;100821.88;;;21.48;100.00
31761;BME280;18335;51.486;7.562;2023-08-20T05:34:28;100831.44;;;21.21;100.00
31761;BME280;18335;51.486;7.562;2023-08-20T05:36:55;100832.97;;;21.04;100.00
31761;BME280;18335;51.486;7.562;2023-08-20T05:39:22;100837.66;;;21.16;100.00
31761;BME280;18335;51.486;7.562;2023-08-20T05:41:51;100836.47;;;21.37;100.00
31761;BME280;18335;51.486;7.562;2023-08-20T05:44:18;100828.75;;;21.45;100.00
31761;BME280;18335;51.486;7.562;2023-08-20T05:46:46;100833.00;;;21.48;100.00
31761;BME280;18335;51.486;7.562;2023-08-20T05:49:14;100840.88;;;21.51;100.00
31761;BME280;18335;51.486;7.562;2023-08-20T05:51:42;100844.47;;;21.58;100.00
31761;BME280;18335;51.486;7.562;2023-08-20T05:54:09;100837.66;;;21.54;100.00
31761;BME280;18335;51.486;7.562;2023-08-20T05:56:36;100845.63;;;21.44;100.00
31761;BME280;18335;51.486;7.562;2023-08-20T05:59:03;100843.19;;;21.61;100.00
31761;BME280;18335;51.486;7.562;2023-08-20T06:01:31;100844.22;;;21.66;100.00
31761;BME280;18335;51.486;7.562;2023-08-20T06:04:00;100841.72;;;21.58;100.00
31761;BME280;18335;51.486;7.562;2023-08-20T06:06:27;100841.47;;;21.60;100.00
31761;BME280;18335;51.486;7.562;2023-08-20T06:08:54;100842.78;;;21.57;100.00
31761;BME280;18335;51.486;7.562;2023-08-20T06:11:21;100847.09;;;21.53;100.00
31761;BME280;18335;51.486;7.562;2023-08-20T06:13:47;100849.63;;;21.55;100.00
31761;BME280;18335;51.486;7.562;2023-08-20T06:16:14;100837.59;;;21.98;100.00
31761;BME280;18335;51.486;7.562;2023-08-20T06:18:41;100845.94;;;21.98;100.00
31761;BME280;18335;51.486;7.562;2023-08-20T06:21:09;100839.94;;;22.01;100.00
31761;BME280;18335;51.486;7.562;2023-08-20T06:23:36;100844.31;;;21.84;100.00
31761;BME280;18335;51.486;7.562;2023-08-20T06:26:02;100840.22;;;21.93;100.00
31761;BME280;18335;51.486;7.562;2023-08-20T06:28:29;100843.97;;;21.74;100.00
31761;BME280;18335;51.486;7.562;2023-08-20T06:30:56;100833.88;;;21.80;100.00
31761;BME280;18335;51.486;7.562;2023-08-20T06:33:22;100831.34;;;22.10;100.00
31761;BME280;18335;51.486;7.562;2023-08-20T06:35:49;100828.25;;;22.18;100.00
31761;BME280;18335;51.486;7.562;2023-08-20T06:38:17;100830.88;;;22.13;100.00
31761;BME280;18335;51.486;7.562;2023-08-20T06:40:44;100837.66;;;22.41;100.00
31761;BME280;18335;51.486;7.562;2023-08-20T06:43:11;100828.63;;;22.28;100.00
31761;BME280;18335;51.486;7.562;2023-08-20T06:45:37;100836.66;;;22.36;100.00
31761;BME280;18335;51.486;7.562;2023-08-20T06:48:04;100838.13;;;22.38;100.00
31761;BME280;18335;51.486;7.562;2023-08-20T06:50:31;100838.38;;;22.55;100.00
31761;BME280;18335;51.486;7.562;2023-08-20T06:52:58;100838.09;;;22.63;100.00
31761;BME280;18335;51.486;7.562;2023-08-20T06:55:26;100837.47;;;22.61;100.00
31761;BME280;18335;51.486;7.562;2023-08-20T06:57:53;100831.28;;;23.02;100.00
31761;BME280;18335;51.486;7.562;2023-08-20T07:00:20;100832.78;;;23.34;100.00
31761;BME280;18335;51.486;7.562;2023-08-20T07:02:47;100832.66;;;23.11;100.00
31761;BME280;18335;51.486;7.562;2023-08-20T07:05:14;100822.13;;;23.31;100.00
31761;BME280;18335;51.486;7.562;2023-08-20T07:07:41;100828.09;;;23.64;100.00
31761;BME280;18335;51.486;7.562;2023-08-20T07:10:08;100830.34;;;23.74;100.00
31761;BME280;18335;51.486;7.562;2023-08-20T07:12:37;100826.91;;;23.72;100.00
31761;BME280;18335;51.486;7.562;2023-08-20T07:15:05;100828.91;;;23.83;100.00
31761;BME280;18335;51.486;7.562;2023-08-20T07:17:32;100823.59;;;23.93;100.00
31761;BME280;18335;51.486;7.562;2023-08-20T07:19:59;100832.69;;;24.00;100.00
31761;BME280;18335;51.486;7.562;2023-08-20T07:22:25;100832.38;;;23.79;100.00
31761;BME280;18335;51.486;7.562;2023-08-20T07:24:52;100829.91;;;23.59;100.00
31761;BME280;18335;51.486;7.562;2023-08-20T07:27:20;100835.78;;;23.51;100.00
31761;BME280;18335;51.486;7.562;2023-08-20T07:29:48;100837.19;;;23.42;100.00
31761;BME280;18335;51.486;7.562;2023-08-20T07:32:15;100824.78;;;23.86;100.00
31761;BME280;18335;51.486;7.562;2023-08-20T07:34:41;100824.72;;;24.04;100.00
31761;BME280;18335;51.486;7.562;2023-08-20T07:37:08;100814.94;;;24.25;100.00
31761;BME280;18335;51.486;7.562;2023-08-20T07:39:35;100814.00;;;24.31;100.00
31761;BME280;18335;51.486;7.562;2023-08-20T07:42:02;100806.97;;;24.28;100.00
31761;BME280;18335;51.486;7.562;2023-08-20T07:44:29;100809.59;;;24.11;100.00
31761;BME280;18335;51.486;7.562;2023-08-20T07:46:57;100811.66;;;24.16;100.00
31761;BME280;18335;51.486;7.562;2023-08-20T07:49:23;100813.69;;;24.09;100.00
31761;BME280;18335;51.486;7.562;2023-08-20T07:51:50;100812.34;;;24.00;100.00
31761;BME280;18335;51.486;7.562;2023-08-20T07:54:17;100810.66;;;24.10;100.00
31761;BME280;18335;51.486;7.562;2023-08-20T07:56:44;100804.75;;;24.42;100.00
31761;BME280;18335;51.486;7.562;2023-08-20T07:59:11;100811.78;;;24.44;100.00
31761;BME280;18335;51.486;7.562;2023-08-20T08:01:38;100812.28;;;24.53;100.00
31761;BME280;18335;51.486;7.562;2023-08-20T08:04:06;100810.81;;;24.62;100.00
31761;BME280;18335;51.486;7.562;2023-08-20T08:06:33;100807.16;;;24.73;100.00
31761;BME280;18335;51.486;7.562;2023-08-20T08:09:17;100807.00;;;25.14;100.00
31761;BME280;18335;51.486;7.562;2023-08-20T08:11:44;100810.63;;;25.26;100.00
31761;BME280;18335;51.486;7.562;2023-08-20T08:14:11;100811.66;;;25.09;100.00
31761;BME280;18335;51.486;7.562;2023-08-20T08:16:38;100810.56;;;25.38;100.00
31761;BME280;18335;51.486;7.562;2023-08-20T08:19:06;100810.34;;;25.00;100.00
31761;BME280;18335;51.486;7.562;2023-08-20T08:21:33;100812.19;;;25.22;100.00
31761;BME280;18335;51.486;7.562;2023-08-20T08:23:59;100820.88;;;25.49;100.00
31761;BME280;18335;51.486;7.562;2023-08-20T08:26:26;100824.19;;;25.35;100.00
31761;BME280;18335;51.486;7.562;2023-08-20T08:28:53;100822.31;;;25.52;100.00
31761;BME280;18335;51.486;7.562;2023-08-20T08:31:20;100822.38;;;25.68;100.00
31761;BME280;18335;51.486;7.562;2023-08-20T08:33:47;100824.44;;;25.90;100.00
31761;BME280;18335;51.486;7.562;2023-08-20T08:36:15;100825.66;;;26.10;100.00
31761;BME280;18335;51.486;7.562;2023-08-20T08:38:42;100824.63;;;26.00;100.00
31761;BME280;18335;51.486;7.562;2023-08-20T08:41:10;100827.72;;;26.15;100.00
31761;BME280;18335;51.486;7.562;2023-08-20T08:43:38;100816.91;;;25.90;100.00
31761;BME280;18335;51.486;7.562;2023-08-20T08:46:06;100818.53;;;26.03;100.00
31761;BME280;18335;51.486;7.562;2023-08-20T08:48:33;100806.00;;;26.38;100.00
31761;BME280;18335;51.486;7.562;2023-08-20T08:51:01;100811.09;;;26.42;100.00
31761;BME280;18335;51.486;7.562;2023-08-20T08:53:30;100810.06;;;26.48;100.00
31761;BME280;18335;51.486;7.562;2023-08-20T08:55:59;100804.44;;;26.64;100.00
31761;BME280;18335;51.486;7.562;2023-08-20T08:58:26;100808.81;;;26.38;100.00
31761;BME280;18335;51.486;7.562;2023-08-20T09:00:52;100808.06;;;26.43;100.00
31761;BME280;18335;51.486;7.562;2023-08-20T09:03:19;100819.22;;;26.60;100.00
31761;BME280;18335;51.486;7.562;2023-08-20T09:05:47;100814.31;;;26.50;100.00
31761;BME280;18335;51.486;7.562;2023-08-20T09:08:20;100813.06;;;26.96;100.00
31761;BME280;18335;51.486;7.562;2023-08-20T09:10:51;100813.72;;;26.81;100.00
31761;BME280;18335;51.486;7.562;2023-08-20T09:13:22;100814.56;;;27.04;100.00
31761;BME280;18335;51.486;7.562;2023-08-20T09:15:50;100814.38;;;27.10;100.00
31761;BME280;18335;51.486;7.562;2023-08-20T09:18:18;100818.78;;;27.06;100.00
31761;BME280;18335;51.486;7.562;2023-08-20T09:20:47;100814.44;;;27.37;100.00
31761;BME280;18335;51.486;7.562;2023-08-20T09:23:15;100806.69;;;27.66;100.00
31761;BME280;18335;51.486;7.562;2023-08-20T09:25:42;100802.69;;;27.62;100.00
31761;BME280;18335;51.486;7.562;2023-08-20T09:28:12;100809.47;;;27.92;100.00
31761;BME280;18335;51.486;7.562;2023-08-20T09:30:39;100799.94;;;27.67;100.00
31761;BME280;18335;51.486;7.562;2023-08-20T09:33:09;100812.81;;;27.89;100.00
31761;BME280;18335;51.486;7.562;2023-08-20T09:35:36;100806.59;;;27.87;100.00
31761;BME280;18335;51.486;7.562;2023-08-20T09:38:04;100808.44;;;28.03;100.00
31761;BME280;18335;51.486;7.562;2023-08-20T09:40:31;100811.22;;;27.98;100.00
31761;BME280;18335;51.486;7.562;2023-08-20T09:42:58;100814.84;;;27.99;100.00
31761;BME280;18335;51.486;7.562;2023-08-20T09:45:29;100805.09;;;28.33;100.00
31761;BME280;18335;51.486;7.562;2023-08-20T09:47:57;100805.72;;;28.40;100.00
31761;BME280;18335;51.486;7.562;2023-08-20T09:50:25;100806.19;;;28.32;100.00
31761;BME280;18335;51.486;7.562;2023-08-20T09:52:56;100808.38;;;28.62;100.00
31761;BME280;18335;51.486;7.562;2023-08-20T09:55:28;100815.25;;;28.76;100.00
31761;BME280;18335;51.486;7.562;2023-08-20T09:57:56;100815.25;;;29.28;100.00
31761;BME280;18335;51.486;7.562;2023-08-20T10:00:25;100821.50;;;29.40;100.00
31761;BME280;18335;51.486;7.562;2023-08-20T10:02:56;100820.94;;;28.91;100.00
31761;BME280;18335;51.486;7.562;2023-08-20T10:05:23;100824.88;;;28.53;100.00
31761;BME280;18335;51.486;7.562;2023-08-20T10:07:50;100823.59;;;29.13;100.00
31761;BME280;18335;51.486;7.562;2023-08-20T10:10:18;100828.06;;;29.71;100.00
31761;BME280;18335;51.486;7.562;2023-08-20T10:12:45;100823.50;;;28.98;100.00
31761;BME280;18335;51.486;7.562;2023-08-20T10:15:14;100828.69;;;29.21;100.00
31761;BME280;18335;51.486;7.562;2023-08-20T10:17:42;100821.97;;;28.75;100.00
31761;BME280;18335;51.486;7.562;2023-08-20T10:20:13;100819.03;;;29.02;100.00
31761;BME280;18335;51.486;7.562;2023-08-20T10:22:43;100817.97;;;29.18;100.00
31761;BME280;18335;51.486;7.562;2023-08-20T10:25:12;100818.78;;;29.66;100.00
31761;BME280;18335;51.486;7.562;2023-08-20T10:27:40;100818.25;;;29.12;100.00
31761;BME280;18335;51.486;7.562;2023-08-20T10:30:09;100811.22;;;29.09;100.00
31761;BME280;18335;51.486;7.562;2023-08-20T10:32:46;100814.41;;;29.28;100.00
31761;BME280;18335;51.486;7.562;2023-08-20T10:35:16;100818.00;;;28.66;100.00
31761;BME280;18335;51.486;7.562;2023-08-20T10:38:00;100817.75;;;28.73;100.00
31761;BME280;18335;51.486;7.562;2023-08-20T10:40:56;100823.78;;;28.54;100.00
31761;BME280;18335;51.486;7.562;2023-08-20T10:43:26;100822.72;;;29.02;100.00
31761;BME280;18335;51.486;7.562;2023-08-20T10:46:02;100827.72;;;29.52;100.00
31761;BME280;18335;51.486;7.562;2023-08-20T10:48:30;100827.91;;;29.26;100.00
31761;BME280;18335;51.486;7.562;2023-08-20T10:51:10;100827.47;;;29.02;100.00
31761;BME280;18335;51.486;7.562;2023-08-20T10:53:37;100827.38;;;29.34;100.00
31761;BME280;18335;51.486;7.562;2023-08-20T10:56:21;100828.25;;;28.92;100.00
31761;BME280;18335;51.486;7.562;2023-08-20T10:58:49;100828.50;;;28.86;100.00
31761;BME280;18335;51.486;7.562;2023-08-20T11:01:20;100829.66;;;28.53;100.00
31761;BME280;18335;51.486;7.562;2023-08-20T11:03:48;100826.22;;;28.78;100.00
31761;BME280;18335;51.486;7.562;2023-08-20T11:06:17;100819.03;;;28.60;100.00
31761;BME280;18335;51.486;7.562;2023-08-20T11:08:44;100822.28;;;28.42;100.00
31761;BME280;18335;51.486;7.562;2023-08-20T11:11:11;100824.31;;;28.51;100.00
31761;BME280;18335;51.486;7.562;2023-08-20T11:13:38;100820.75;;;28.61;100.00
31761;BME280;18335;51.486;7.562;2023-08-20T11:16:06;100821.44;;;28.78;100.00
31761;BME280;18335;51.486;7.562;2023-08-20T11:18:33;100819.88;;;29.64;100.00
31761;BME280;18335;51.486;7.562;2023-08-20T11:21:00;100821.84;;;29.69;100.00
31761;BME280;18335;51.486;7.562;2023-08-20T11:23:29;100824.91;;;29.47;100.00
31761;BME280;18335;51.486;7.562;2023-08-20T11:25:56;100827.75;;;29.68;100.00
31761;BME280;18335;51.486;7.562;2023-08-20T11:28:25;100819.88;;;29.59;100.00
31761;BME280;18335;51.486;7.562;2023-08-20T11:30:53;100821.66;;;30.06;100.00
31761;BME280;18335;51.486;7.562;2023-08-20T11:33:20;100825.50;;;29.64;100.00
31761;BME280;18335;51.486;7.562;2023-08-20T11:35:48;100830.56;;;29.62;100.00
31761;BME280;18335;51.486;7.562;2023-08-20T11:38:14;100827.00;;;29.15;100.00
31761;BME280;18335;51.486;7.562;2023-08-20T11:40:43;100824.13;;;29.10;100.00
31761;BME280;18335;51.486;7.562;2023-08-20T11:43:09;100819.69;;;28.67;100.00
31761;BME280;18335;51.486;7.562;2023-08-20T11:45:45;100827.56;;;28.38;100.00
31761;BME280;18335;51.486;7.562;2023-08-20T11:48:13;100811.28;;;28.72;100.00
31761;BME280;18335;51.486;7.562;2023-08-20T11:50:40;100812.63;;;29.12;100.00
31761;BME280;18335;51.486;7.562;2023-08-20T11:53:08;100814.50;;;29.58;100.00
31761;BME280;18335;51.486;7.562;2023-08-20T11:55:34;100809.28;;;30.12;100.00
31761;BME280;18335;51.486;7.562;2023-08-20T11:58:03;100809.28;;;29.97;100.00
31761;BME280;18335;51.486;7.562;2023-08-20T12:00:31;100817.66;;;29.77;100.00
31761;BME280;18335;51.486;7.562;2023-08-20T12:02:58;100817.09;;;29.75;100.00
31761;BME280;18335;51.486;7.562;2023-08-20T12:05:28;100811.25;;;29.86;100.00
31761;BME280;18335;51.486;7.562;2023-08-20T12:07:56;100815.97;;;29.76;100.00
31761;BME280;18335;51.486;7.562;2023-08-20T12:10:23;100807.25;;;29.77;100.00
31761;BME280;18335;51.486;7.562;2023-08-20T12:12:51;100812.94;;;29.97;100.00
31761;BME280;18335;51.486;7.562;2023-08-20T12:15:19;100803.66;;;30.07;100.00
31761;BME280;18335;51.486;7.562;2023-08-20T12:17:56;100806.19;;;30.03;100.00
31761;BME280;18335;51.486;7.562;2023-08-20T12:20:26;100809.22;;;29.72;100.00
31761;BME280;18335;51.486;7.562;2023-08-20T12:22:53;100802.44;;;29.73;100.00
31761;BME280;18335;51.486;7.562;2023-08-20T12:25:19;100815.41;;;29.69;100.00
31761;BME280;18335;51.486;7.562;2023-08-20T12:27:46;100810.56;;;29.49;100.00
31761;BME280;18335;51.486;7.562;2023-08-20T12:30:13;100818.06;;;29.23;100.00
31761;BME280;18335;51.486;7.562;2023-08-20T12:32:41;100812.28;;;28.98;100.00
31761;BME280;18335;51.486;7.562;2023-08-20T12:35:08;100816.06;;;28.72;100.00
31761;BME280;18335;51.486;7.562;2023-08-20T12:37:35;100809.91;;;28.75;100.00
31761;BME280;18335;51.486;7.562;2023-08-20T12:40:02;100810.78;;;28.85;100.00
31761;BME280;18335;51.486;7.562;2023-08-20T12:42:33;100806.19;;;28.64;100.00
31761;BME280;18335;51.486;7.562;2023-08-20T12:45:00;100811.41;;;29.49;100.00